createdAt,value
2023-02-23T00:12:45.584Z,6.37
2023-02-23T00:32:45.586Z,6.12
2023-02-23T00:52:45.593Z,6.50
2023-02-23T01:12:45.622Z,6.25
2023-02-23T01:32:45.586Z,6.37
2023-02-23T01:52:45.590Z,6.18
2023-02-23T02:12:45.613Z,6.43
2023-02-23T02:32:45.672Z,6.18
2023-02-23T02:52:45.523Z,6.06
2023-02-23T03:12:45.503Z,6.31
2023-02-23T03:32:45.542Z,6.31
2023-02-23T03:52:45.514Z,6.06
2023-02-23T04:12:45.510Z,6.18
2023-02-23T04:32:45.524Z,6.06
2023-02-23T04:52:45.531Z,5.81
2023-02-23T05:12:45.571Z,6.06
2023-02-23T05:32:45.535Z,5.68
2023-02-23T05:52:45.566Z,5.81
2023-02-23T06:12:45.641Z,6.06
2023-02-23T06:32:45.489Z,5.93
2023-02-23T06:52:45.463Z,6.18
2023-02-23T07:12:45.471Z,6.18
2023-02-23T07:32:45.451Z,6.18
2023-02-23T07:52:45.532Z,6.25
2023-02-23T08:12:45.484Z,6.31
2023-02-23T08:32:45.541Z,6.31
2023-02-23T08:52:45.416Z,6.31
2023-02-23T09:12:45.480Z,6.25
2023-02-23T09:32:45.451Z,6.37
2023-02-23T09:52:45.443Z,6.37
2023-02-23T10:12:45.447Z,6.62
2023-02-23T10:32:45.454Z,6.31
2023-02-23T10:52:45.445Z,6.68
2023-02-23T11:12:45.485Z,6.56
2023-02-23T11:32:45.344Z,6.68
2023-02-23T11:52:45.390Z,6.56
2023-02-23T12:12:45.428Z,6.56
2023-02-23T12:32:45.274Z,6.68
2023-02-23T12:52:45.266Z,6.68
2023-02-23T13:12:45.296Z,6.81
2023-02-23T13:32:45.279Z,6.81
2023-02-23T13:52:45.335Z,6.75
2023-02-23T14:12:45.202Z,6.81
2023-02-23T14:32:45.277Z,6.68
2023-02-23T14:52:45.234Z,6.87
2023-02-23T15:12:45.230Z,6.81
2023-02-23T15:32:45.258Z,6.75
2023-02-23T15:52:45.356Z,6.68
2023-02-23T16:12:45.315Z,6.68
2023-02-23T16:32:45.276Z,6.87
2023-02-23T16:52:45.294Z,6.81
2023-02-23T17:12:45.342Z,6.50
2023-02-23T17:32:45.273Z,6.62
2023-02-23T17:52:45.249Z,6.62
2023-02-23T18:12:45.280Z,6.75
2023-02-23T18:32:45.165Z,6.75
2023-02-23T18:52:45.303Z,6.56
2023-02-23T19:12:45.277Z,6.18
2023-02-23T19:32:45.248Z,6.18
2023-02-23T19:52:45.371Z,6.56
2023-02-23T20:12:45.224Z,6.18
2023-02-23T20:32:45.221Z,6.37
2023-02-23T20:52:45.232Z,6.25
2023-02-23T21:12:45.251Z,6.62
2023-02-23T21:32:45.217Z,6.50
2023-02-23T21:52:45.219Z,6.50
2023-02-23T22:12:45.251Z,6.62
2023-02-23T22:32:45.266Z,6.43
2023-02-23T22:52:45.268Z,6.56
2023-02-23T23:12:45.241Z,6.43
2023-02-23T23:32:45.082Z,6.43
2023-02-23T23:52:45.230Z,6.56
